»·PEaware :: RA34691 RKSI-UHWW

RA34691 :: RKSI-UHWW

FLIGHT INFORMATION

Flight Status: Arrived
Operator: Privately registered:
Russian Federation
More flights under this callsign
Pilot: Sergei Fabrichnikov (8485)
Aircraft: Unknown
(E50P)
More flights by this aircraft type
Origin: RKSI Incheon Intl
Republic of Korea
Destination: UHWW Knevichi
Russian Federation
More flights between these airports :: More routes between these airports
Route: RKSI UHWW
File this flight plan on PilotEdge
Remarks:
Altitude:
(Current/Filed)
25,000ft
Speed:
(Current/Filed)
300kts
Departed: 05-May-16 02:29 AM
Arrived: 05-May-16 03:55 AM
Distance/Time
Traveled:
442nm/1:26
Distance/Time
To Go:
Arrived

Flight Plot

Page will automatically refresh every two minutes.


Map Options




Map Legend


Flown Route
Filed Route
Departure Airport
Arrival Airport
Navaid (VOR, NDB)
Fix

Horizontal Profiles

Position Reports

Time Latitude Longitude Heading Altitude Ground
Speed
05-May-16 02:09 37.452130 126.453053 336 28ft 0kts
05-May-16 02:10 37.452130 126.453053 336 28ft 0kts
05-May-16 02:11 37.452130 126.453053 336 28ft 0kts
05-May-16 02:12 37.452130 126.453053 336 28ft 0kts
05-May-16 02:13 37.452130 126.453053 336 28ft 0kts
05-May-16 02:14 37.452130 126.453053 336 28ft 0kts
05-May-16 02:15 37.452130 126.453053 336 28ft 0kts
05-May-16 02:16 37.452130 126.453053 336 28ft 0kts
05-May-16 02:17 37.452131 126.453053 336 28ft 0kts
05-May-16 02:18 37.452224 126.453031 2 28ft 3kts
05-May-16 02:19 37.453753 126.453296 343 28ft 9kts
05-May-16 02:20 37.456559 126.452078 324 28ft 10kts
05-May-16 02:21 37.458628 126.452728 324 28ft 10kts
05-May-16 02:22 37.461791 126.449999 324 28ft 14kts
05-May-16 02:23 37.464435 126.449072 324 28ft 12kts
05-May-16 02:24 37.467903 126.446001 323 28ft 18kts
05-May-16 02:25 37.471374 126.442892 322 28ft 10kts
05-May-16 02:26 37.472211 126.444260 105 28ft 8kts
05-May-16 02:27 37.471939 126.445077 144 28ft 7kts
05-May-16 02:28 37.450868 126.463430 146 730ft 150kts
05-May-16 02:29 37.439155 126.507469 48 2420ft 188kts
05-May-16 02:30 37.479507 126.552042 46 3886ft 200kts
05-May-16 02:31 37.522994 126.598582 39 5324ft 209kts
05-May-16 02:32 37.571037 126.645149 41 6455ft 228kts
05-May-16 02:33 37.613300 126.687178 42 7404ft 183kts
05-May-16 02:34 37.659747 126.735229 41 8586ft 230kts
05-May-16 02:35 37.709468 126.788704 41 9653ft 238kts
05-May-16 02:36 37.759692 126.845810 41 10721ft 243kts
05-May-16 02:37 37.808891 126.905274 41 11790ft 247kts
05-May-16 02:38 37.857802 126.967763 41 12850ft 253kts
05-May-16 02:39 37.913701 127.030039 24 13902ft 279kts
05-May-16 02:40 37.984071 127.081835 22 14929ft 302kts
05-May-16 02:41 38.058697 127.136853 22 15945ft 315kts
05-May-16 02:42 38.127545 127.211419 37 16949ft 332kts
05-May-16 02:43 38.200281 127.279665 14 17955ft 317kts
05-May-16 02:44 38.278807 127.332375 23 18955ft 324kts
05-May-16 02:45 38.353906 127.395785 24 19953ft 321kts
05-May-16 02:46 38.429352 127.453129 18 20948ft 311kts
05-May-16 02:47 38.504702 127.505982 18 21942ft 305kts
05-May-16 02:48 38.580012 127.549896 5 22940ft 285kts
05-May-16 02:49 38.654230 127.577301 3 23924ft 273kts
05-May-16 02:50 38.726033 127.604436 3 24868ft 264kts
05-May-16 02:51 38.799025 127.632164 3 25035ft 285kts
05-May-16 02:52 38.879105 127.660666 3 24944ft 309kts
05-May-16 02:53 38.964358 127.689552 3 24939ft 324kts
05-May-16 02:54 39.053691 127.719028 3 24938ft 334kts
05-May-16 02:55 39.144621 127.741274 0 24940ft 337kts
05-May-16 02:56 39.237161 127.775024 12 24939ft 356kts
05-May-16 02:57 39.327397 127.832663 20 24937ft 367kts
05-May-16 02:58 39.413076 127.908189 29 24935ft 377kts
05-May-16 02:59 39.495147 127.993494 30 24939ft 379kts
05-May-16 03:00 39.577069 128.080936 32 24936ft 382kts
05-May-16 03:01 39.661943 128.162194 25 24934ft 377kts
05-May-16 03:02 39.748540 128.239566 24 24932ft 377kts
05-May-16 03:03 39.834988 128.316615 24 24930ft 377kts
05-May-16 03:04 39.921554 128.393760 24 24928ft 377kts
05-May-16 03:05 40.009044 128.471737 23 24926ft 378kts
05-May-16 03:06 40.089194 128.563842 34 24923ft 387kts
05-May-16 03:07 40.165727 128.662812 37 24920ft 389kts
05-May-16 03:08 40.238877 128.767721 39 24938ft 389kts
05-May-16 03:09 40.309065 128.876472 43 24919ft 394kts
05-May-16 03:10 40.376292 128.990410 43 24903ft 394kts
05-May-16 03:11 40.443485 129.104203 40 24900ft 390kts
05-May-16 03:12 40.505625 129.189647 34 24897ft 384kts
05-May-16 03:13 40.602065 129.287895 23 24898ft 372kts
05-May-16 03:14 40.674382 129.351207 22 24896ft 372kts
05-May-16 03:15 40.760423 129.426612 22 24893ft 371kts
05-May-16 03:16 40.846628 129.502373 22 24889ft 371kts
05-May-16 03:17 40.932635 129.578422 22 24887ft 371kts
05-May-16 03:18 41.018205 129.654400 22 24883ft 370kts
05-May-16 03:19 41.103893 129.730922 22 24880ft 370kts
05-May-16 03:20 41.187809 129.806352 22 24879ft 369kts
05-May-16 03:21 41.273645 129.884056 22 24877ft 368kts
05-May-16 03:22 41.358480 129.961405 22 24874ft 367kts
05-May-16 03:23 41.456049 130.051399 22 24872ft 366kts
05-May-16 03:24 41.523740 130.121730 27 24870ft 371kts
05-May-16 03:25 41.603512 130.209627 27 24868ft 370kts
05-May-16 03:26 41.682804 130.297350 27 24866ft 370kts
05-May-16 03:27 41.762822 130.385940 27 24864ft 370kts
05-May-16 03:28 41.841750 130.473371 27 24863ft 370kts
05-May-16 03:29 41.921472 130.561716 27 24862ft 369kts
05-May-16 03:30 42.000690 130.649564 27 24861ft 369kts
05-May-16 03:31 42.080027 130.736797 27 24859ft 364kts
05-May-16 03:32 42.157741 130.822192 28 24857ft 362kts
05-May-16 03:33 42.232379 130.915999 31 24856ft 365kts
05-May-16 03:34 42.305272 131.010957 32 24855ft 364kts
05-May-16 03:35 42.380783 131.107557 31 23546ft 390kts
05-May-16 03:36 42.461934 131.201623 29 21667ft 379kts
05-May-16 03:37 42.543894 131.287768 29 20050ft 367kts
05-May-16 03:38 42.624208 131.370856 28 18177ft 356kts
05-May-16 03:39 42.704185 131.446406 27 16241ft 345kts
05-May-16 03:40 42.782469 131.517102 27 14545ft 334kts
05-May-16 03:41 42.858878 131.588365 32 12982ft 329kts
05-May-16 03:42 42.930456 131.661697 30 11241ft 321kts
05-May-16 03:43 43.000821 131.733181 33 9771ft 302kts
05-May-16 03:44 43.065256 131.804355 34 8071ft 292kts
05-May-16 03:45 43.125361 131.874709 39 6326ft 279kts
05-May-16 03:46 43.188877 131.924972 13 4779ft 242kts
05-May-16 03:47 43.245407 131.951002 22 4506ft 194kts
05-May-16 03:48 43.293191 131.974045 14 3945ft 156kts
05-May-16 03:49 43.328459 132.002026 41 2675ft 143kts
05-May-16 03:50 43.351540 132.039060 54 1598ft 120kts
05-May-16 03:51 43.366950 132.076346 59 906ft 104kts
05-May-16 03:52 43.380616 132.109169 58 324ft 94kts
05-May-16 03:53 43.392790 132.139295 59 68ft 88kts
05-May-16 03:54 43.402003 132.162138 61 63ft 28kts
05-May-16 03:55 43.404195 132.167682 62 63ft 11kts
05-May-16 03:56 43.403033 132.169401 150 63ft 8kts
05-May-16 03:57 43.401455 132.168902 241 63ft 4kts
05-May-16 03:58 43.401069 132.167929 241 63ft 2kts
05-May-16 03:59 43.400376 132.167318 150 63ft 3kts
05-May-16 04:00 43.400126 132.167509 150 63ft 0kts
05-May-16 04:01 43.400126 132.167509 150 63ft 0kts

Navigation Log

Ident Type
1. RKSI Airport
2. UHWW Airport